createdAt,value
2022-11-09T00:03:25.378Z,16.07
2022-11-09T00:07:28.087Z,14.47
2022-11-09T00:11:28.296Z,11.23
2022-11-09T00:15:28.438Z,16.13
2022-11-09T00:19:29.359Z,16.03
2022-11-09T00:23:31.987Z,16.90
2022-11-09T00:27:32.135Z,18.17
2022-11-09T00:31:32.212Z,17.83
2022-11-09T00:35:32.357Z,20.30
2022-11-09T00:39:35.043Z,17.53
2022-11-09T00:43:36.000Z,16.97
2022-11-09T00:47:36.433Z,17.10
2022-11-09T00:51:36.621Z,16.20
2022-11-09T00:55:39.378Z,16.30
2022-11-09T00:59:39.556Z,19.07
2022-11-09T01:03:40.212Z,18.70
2022-11-09T01:07:41.771Z,21.17
2022-11-09T01:11:44.508Z,18.17
2022-11-09T01:15:46.420Z,19.87
2022-11-09T01:19:46.742Z,15.87
2022-11-09T01:23:48.139Z,16.53
2022-11-09T01:27:50.858Z,18.93
2022-11-09T01:31:51.143Z,16.93
2022-11-09T01:35:51.260Z,17.90
2022-11-09T01:39:51.410Z,15.87
2022-11-09T01:44:13.922Z,17.67
2022-11-09T01:48:20.739Z,20.50
2022-11-09T01:52:30.435Z,17.53
2022-11-09T01:56:32.806Z,17.90
2022-11-09T02:00:39.247Z,18.23
2022-11-09T02:04:46.021Z,21.33
2022-11-09T02:08:48.719Z,20.27
2022-11-09T02:12:49.938Z,18.67
2022-11-09T02:16:53.533Z,19.33
2022-11-09T02:21:00.054Z,23.33
2022-11-09T02:25:00.246Z,20.63
2022-11-09T02:29:04.958Z,23.33
2022-11-09T02:33:06.113Z,24.83
2022-11-09T02:37:09.413Z,22.60
2022-11-09T02:41:12.205Z,20.43
2022-11-09T02:45:14.031Z,18.83
2022-11-09T02:49:15.659Z,21.80
2022-11-09T02:53:18.747Z,24.57
2022-11-09T02:57:19.252Z,21.20
2022-11-09T03:01:19.544Z,20.37
2022-11-09T03:05:20.113Z,20.60
2022-11-09T03:09:23.016Z,20.73
2022-11-09T03:13:24.260Z,21.07
2022-11-09T03:17:27.356Z,20.93
2022-11-09T03:21:28.034Z,19.47
2022-11-09T03:25:31.257Z,20.57
2022-11-09T03:29:33.545Z,21.13
2022-11-09T03:33:34.903Z,22.43
2022-11-09T03:37:35.339Z,23.07
2022-11-09T03:41:39.413Z,22.77
2022-11-09T03:45:42.137Z,24.47
2022-11-09T03:49:42.222Z,25.57
2022-11-09T03:53:42.333Z,26.90
2022-11-09T03:57:46.918Z,27.53
2022-11-09T04:01:48.209Z,22.23
2022-11-09T04:05:48.509Z,23.43
2022-11-09T04:09:48.635Z,22.57
2022-11-09T04:13:51.394Z,20.63
2022-11-09T04:17:58.915Z,22.07
2022-11-09T04:21:59.089Z,22.90
2022-11-09T04:26:02.071Z,22.30
2022-11-09T04:30:04.760Z,21.10
2022-11-09T04:34:04.902Z,22.87
2022-11-09T04:38:08.440Z,21.27
2022-11-09T04:42:09.210Z,25.00
2022-11-09T04:46:11.981Z,20.47
2022-11-09T04:50:13.483Z,21.67
2022-11-09T04:54:14.459Z,22.03
2022-11-09T04:58:14.923Z,22.80
2022-11-09T05:02:17.793Z,21.73
2022-11-09T05:06:30.717Z,19.17
2022-11-09T05:10:31.396Z,19.37
2022-11-09T05:14:31.550Z,20.00
2022-11-09T05:18:34.370Z,19.93
2022-11-09T05:22:47.011Z,18.80
2022-11-09T05:26:47.298Z,18.70
2022-11-09T05:30:47.534Z,22.20
2022-11-09T05:34:50.211Z,21.53
2022-11-09T05:38:50.714Z,24.03
2022-11-09T05:42:51.212Z,23.20
2022-11-09T05:46:52.040Z,22.73
2022-11-09T05:50:54.767Z,26.60
2022-11-09T05:54:57.722Z,24.60
2022-11-09T05:58:58.109Z,21.40
2022-11-09T06:03:04.909Z,23.07
2022-11-09T06:07:08.549Z,20.93
2022-11-09T06:11:12.025Z,22.60
2022-11-09T06:15:12.971Z,26.60
2022-11-09T06:19:13.281Z,21.77
2022-11-09T06:23:16.181Z,20.33
2022-11-09T06:27:16.347Z,20.23
2022-11-09T06:31:20.705Z,22.27
2022-11-09T06:35:21.002Z,22.07
2022-11-09T06:39:23.698Z,22.33
2022-11-09T06:43:24.167Z,20.37
2022-11-09T06:47:24.293Z,20.40
2022-11-09T06:51:24.475Z,26.23
2022-11-09T06:55:27.498Z,27.90
2022-11-09T06:59:27.706Z,19.67
2022-11-09T07:03:29.807Z,19.47
2022-11-09T07:07:30.024Z,16.23
2022-11-09T07:11:33.008Z,15.90
2022-11-09T07:15:33.888Z,14.23
2022-11-09T07:19:34.164Z,15.67
2022-11-09T07:23:34.288Z,17.93
2022-11-09T07:27:38.108Z,26.23
2022-11-09T07:31:38.304Z,21.33
2022-11-09T07:35:38.934Z,20.40
2022-11-09T07:39:39.013Z,17.17
2022-11-09T07:43:41.662Z,18.90
2022-11-09T07:47:41.877Z,14.90
2022-11-09T07:51:42.424Z,14.90
2022-11-09T07:55:43.078Z,13.57
2022-11-09T07:59:46.160Z,13.80
2022-11-09T08:03:46.381Z,13.13
2022-11-09T08:07:46.653Z,15.23
2022-11-09T08:11:46.775Z,12.03
2022-11-09T08:15:49.864Z,17.27
2022-11-09T08:19:50.147Z,13.97
2022-11-09T08:23:50.781Z,16.73
2022-11-09T08:27:51.464Z,11.53
2022-11-09T08:31:55.341Z,12.17
2022-11-09T08:35:55.610Z,12.70
2022-11-09T08:39:55.693Z,10.97
2022-11-09T08:43:55.791Z,13.30
2022-11-09T08:48:04.291Z,12.77
2022-11-09T08:52:04.992Z,12.63
2022-11-09T08:56:05.284Z,12.43
2022-11-09T09:00:07.794Z,12.30
2022-11-09T09:04:13.726Z,13.07
2022-11-09T09:08:15.694Z,13.70
2022-11-09T09:12:15.888Z,13.33
2022-11-09T09:16:19.087Z,15.07
2022-11-09T09:20:22.175Z,13.47
2022-11-09T09:24:22.530Z,13.10
2022-11-09T09:28:22.877Z,14.10
2022-11-09T09:32:23.259Z,11.30
2022-11-09T09:36:28.632Z,11.83
2022-11-09T09:40:37.616Z,14.43
2022-11-09T09:44:46.259Z,10.77
2022-11-09T09:48:54.444Z,12.17
2022-11-09T09:53:23.232Z,17.03
2022-11-09T09:57:28.790Z,13.93
2022-11-09T10:01:40.086Z,11.77
2022-11-09T10:05:57.487Z,11.27
2022-11-09T10:10:20.378Z,11.20
2022-11-09T10:15:02.648Z,10.93
2022-11-09T10:19:29.159Z,13.67
2022-11-09T10:24:03.392Z,10.83
2022-11-09T10:28:13.563Z,10.80
2022-11-09T10:32:19.274Z,11.60
2022-11-09T10:36:30.279Z,13.23
2022-11-09T10:40:36.976Z,11.27
2022-11-09T10:44:58.815Z,14.13
2022-11-09T10:49:24.513Z,12.03
2022-11-09T10:53:43.325Z,11.33
2022-11-09T10:58:06.431Z,12.73
2022-11-09T11:02:53.364Z,20.27
2022-11-09T11:07:21.601Z,12.30
2022-11-09T11:11:42.849Z,8.32
2022-11-09T11:16:02.347Z,8.25
2022-11-09T11:20:36.330Z,12.88
2022-11-09T11:24:59.763Z,14.50
2022-11-09T11:29:34.240Z,12.95
2022-11-09T11:33:53.309Z,12.68
2022-11-09T11:38:30.347Z,9.93
2022-11-09T11:43:13.892Z,14.18
2022-11-09T11:47:48.226Z,8.20
2022-11-09T11:52:20.127Z,13.75
2022-11-09T11:56:46.826Z,8.70
2022-11-09T12:01:27.243Z,8.43
2022-11-09T12:06:44.223Z,7.70
2022-11-09T12:11:18.553Z,5.53
2022-11-09T12:15:56.540Z,6.47
2022-11-09T12:20:33.988Z,6.18
2022-11-09T12:25:03.084Z,4.05
2022-11-09T12:29:25.435Z,4.78
2022-11-09T12:33:53.640Z,4.13
2022-11-09T12:38:21.222Z,6.35
2022-11-09T12:42:47.790Z,6.85
2022-11-09T12:47:15.553Z,5.90
2022-11-09T12:51:38.260Z,7.13
2022-11-09T12:56:03.690Z,6.03
2022-11-09T13:00:55.370Z,4.47
2022-11-09T13:05:33.393Z,6.15
2022-11-09T13:10:02.663Z,4.38
2022-11-09T13:14:45.023Z,4.82
2022-11-09T13:19:06.180Z,5.00
2022-11-09T13:29:17.020Z,4.95
2022-11-09T13:33:39.696Z,5.93
2022-11-09T13:38:00.566Z,5.00
2022-11-09T13:42:32.138Z,5.05
2022-11-09T13:46:53.889Z,6.85
2022-11-09T13:51:18.558Z,4.60
2022-11-09T13:55:41.244Z,4.97
2022-11-09T14:00:03.277Z,4.88
2022-11-09T14:04:26.840Z,9.05
2022-11-09T14:08:49.428Z,5.18
2022-11-09T14:13:32.494Z,7.43
2022-11-09T14:18:08.008Z,5.18
2022-11-09T14:22:26.827Z,6.80
2022-11-09T14:27:18.084Z,6.00
2022-11-09T14:31:46.599Z,7.00
2022-11-09T14:36:07.799Z,6.47
2022-11-09T14:40:29.787Z,10.30
2022-11-09T14:44:52.623Z,13.07
2022-11-09T14:49:14.962Z,12.88
2022-11-09T14:53:37.808Z,10.88
2022-11-09T14:57:59.385Z,14.65
2022-11-09T15:02:23.045Z,9.93
2022-11-09T15:06:51.031Z,12.40
2022-11-09T15:11:10.476Z,19.42
2022-11-09T15:15:33.108Z,13.88
2022-11-09T15:19:57.732Z,9.47
2022-11-09T15:24:20.175Z,31.77
2022-11-09T15:28:50.739Z,13.47
2022-11-09T15:33:28.924Z,11.97
2022-11-09T15:37:56.487Z,10.53
2022-11-09T15:42:15.729Z,31.83
2022-11-09T15:46:40.200Z,14.43
2022-11-09T15:50:59.796Z,14.63
2022-11-09T15:55:25.832Z,11.40
2022-11-09T15:59:44.823Z,16.43
2022-11-09T16:04:03.423Z,13.60
2022-11-09T16:08:22.737Z,13.93
2022-11-09T16:12:46.533Z,12.00
2022-11-09T16:17:05.960Z,9.40
2022-11-09T16:21:24.823Z,12.73
2022-11-09T16:25:44.835Z,12.07
2022-11-09T16:30:07.415Z,12.93
2022-11-09T16:34:26.001Z,12.63
2022-11-09T16:38:48.523Z,12.93
2022-11-09T16:43:07.394Z,13.83
2022-11-09T16:47:28.642Z,12.03
2022-11-09T16:51:47.012Z,10.97
2022-11-09T16:56:05.744Z,15.93
2022-11-09T17:00:33.749Z,12.63
2022-11-09T17:05:07.381Z,16.30
2022-11-09T17:09:26.020Z,12.33
2022-11-09T17:13:45.051Z,13.20
2022-11-09T17:18:03.676Z,13.63
2022-11-09T17:22:25.447Z,11.20
2022-11-09T17:26:44.071Z,15.40
2022-11-09T17:31:02.847Z,14.23
2022-11-09T17:35:21.463Z,11.63
2022-11-09T17:39:42.695Z,14.57
2022-11-09T17:44:04.151Z,14.57
2022-11-09T17:48:23.122Z,19.80
2022-11-09T17:52:42.206Z,19.63
2022-11-09T17:57:04.080Z,14.77
2022-11-09T18:01:24.483Z,16.90
2022-11-09T18:05:45.473Z,22.90
2022-11-09T18:10:04.213Z,14.43
2022-11-09T18:14:25.622Z,18.57
2022-11-09T18:18:44.713Z,15.90
2022-11-09T18:23:03.214Z,18.73
2022-11-09T18:27:26.077Z,24.53
2022-11-09T18:31:52.080Z,19.77
2022-11-09T18:36:15.772Z,22.37
2022-11-09T18:40:34.958Z,19.53
2022-11-09T18:44:53.744Z,23.00
2022-11-09T18:49:15.413Z,19.17
2022-11-09T18:53:39.300Z,19.53
2022-11-09T18:57:57.875Z,18.23
2022-11-09T19:02:17.192Z,19.77
2022-11-09T19:06:38.743Z,19.67
2022-11-09T19:10:57.453Z,20.93
2022-11-09T19:15:16.122Z,24.77
2022-11-09T19:19:34.544Z,27.13
2022-11-09T19:23:56.804Z,35.23
2022-11-09T19:28:15.301Z,38.87
2022-11-09T19:32:33.991Z,23.70
2022-11-09T19:36:52.947Z,27.63
2022-11-09T19:41:14.555Z,20.50
2022-11-09T19:45:32.996Z,20.67
2022-11-09T19:49:51.871Z,34.23
2022-11-09T19:54:10.965Z,57.23
2022-11-09T19:58:31.994Z,24.77
2022-11-09T20:02:53.275Z,21.47
2022-11-09T20:07:12.560Z,22.33
2022-11-09T20:11:48.430Z,21.97
2022-11-09T20:16:13.234Z,23.10
2022-11-09T20:20:35.155Z,21.50
2022-11-09T20:25:04.962Z,21.63
2022-11-09T20:29:36.955Z,19.03
2022-11-09T20:34:03.170Z,20.90
2022-11-09T20:38:23.212Z,37.00
2022-11-09T20:42:42.728Z,28.93
2022-11-09T20:47:01.993Z,34.50
2022-11-09T20:51:29.081Z,24.13
2022-11-09T20:55:50.961Z,24.50
2022-11-09T21:06:05.073Z,23.70
2022-11-09T21:10:26.961Z,25.27
2022-11-09T21:14:45.638Z,26.47
2022-11-09T21:19:04.596Z,23.00
2022-11-09T21:23:39.074Z,26.53
2022-11-09T21:28:24.285Z,33.00
2022-11-09T21:32:43.870Z,31.47
2022-11-09T21:37:02.560Z,36.33
2022-11-09T21:41:33.955Z,27.57
2022-11-09T21:45:56.508Z,24.90
2022-11-09T21:50:15.546Z,24.80
2022-11-09T21:54:34.152Z,28.10
2022-11-09T21:58:53.154Z,22.57
2022-11-09T22:03:14.629Z,20.90
2022-11-09T22:07:32.984Z,22.10
2022-11-09T22:12:04.068Z,19.77
2022-11-09T22:16:26.340Z,19.80
2022-11-09T22:20:59.328Z,21.47
2022-11-09T22:25:18.316Z,22.77
2022-11-09T22:29:36.782Z,20.83
2022-11-09T22:33:56.369Z,22.17
2022-11-09T22:38:17.787Z,23.27
2022-11-09T22:42:36.770Z,22.07
2022-11-09T22:46:55.777Z,22.20
2022-11-09T22:51:17.202Z,16.57
2022-11-09T22:55:38.653Z,24.17
2022-11-09T22:59:57.113Z,25.00
2022-11-09T23:04:15.955Z,27.40
2022-11-09T23:08:38.168Z,22.43
2022-11-09T23:13:01.615Z,22.87
2022-11-09T23:17:32.629Z,19.03
2022-11-09T23:21:51.480Z,20.33
2022-11-09T23:26:11.633Z,20.60
2022-11-09T23:30:32.984Z,16.47
2022-11-09T23:34:51.496Z,17.13
2022-11-09T23:39:10.609Z,15.77
2022-11-09T23:43:29.132Z,15.43
2022-11-09T23:47:50.338Z,13.50
2022-11-09T23:52:09.201Z,14.50
2022-11-09T23:56:27.840Z,13.63
